CheckWX is a tool to help pilots better visualize weather data.  It is not intended as a substitute for an official pre-flight weather briefing.

12:02:42 UTC

KMGR METAR
Moultrie Municipal Airport
Moultrie, Georgia, USA
Current

8 mins ago

KMGR 251155Z AUTO 00000KT 1/4SM FG OVC001 12/11 A3013 RMK AO2
Observed
Mar-25 @ 11:55 UTC
Visibility
1/4 SM
Flight Rules
LIFR
Conditions
Fog
Cloud Levels
  • Overcast at 100' AGL
Temperature
12°C / 54°F
Dewpoint
11°C / 52°F
Humidity
94%
Altimeter
30.13" Hg
Pressure
1020.32 hPa
Previous

28 mins ago

KMGR 251135Z AUTO 00000KT 1/2SM FG OVC001 12/11 A3012 RMK AO2
Observed
Mar-25 @ 11:35 UTC
Visibility
1/2 SM
Flight Rules
LIFR
Conditions
Fog
Cloud Levels
  • Overcast at 100' AGL
Temperature
12°C / 54°F
Dewpoint
11°C / 52°F
Humidity
94%
Altimeter
30.12" Hg
Pressure
1020.02 hPa
Previous

48 mins ago

KMGR 251115Z AUTO 00000KT 1/4SM FG BKN001 12/11 A3012 RMK AO2
Observed
Mar-25 @ 11:15 UTC
Visibility
1/4 SM
Flight Rules
LIFR
Conditions
Fog
Cloud Levels
  • Broken at 100' AGL
Temperature
12°C / 54°F
Dewpoint
11°C / 52°F
Humidity
94%
Altimeter
30.12" Hg
Pressure
1020.02 hPa